createdAt,value
2022-10-23T00:02:19.902Z,13.63
2022-10-23T00:04:51.603Z,13.38
2022-10-23T00:07:19.951Z,13.55
2022-10-23T00:09:47.743Z,13.41
2022-10-23T00:12:15.617Z,13.38
2022-10-23T00:14:43.446Z,13.19
2022-10-23T00:17:12.656Z,13.33
2022-10-23T00:19:40.577Z,13.24
2022-10-23T00:22:11.166Z,12.93
2022-10-23T00:24:38.959Z,13.04
2022-10-23T00:27:06.773Z,13.05
2022-10-23T00:29:34.575Z,13.21
2022-10-23T00:32:02.445Z,13.07
2022-10-23T00:34:30.421Z,12.94
2022-10-23T00:36:58.202Z,12.87
2022-10-23T00:39:27.456Z,12.98
2022-10-23T00:41:55.304Z,13.25
2022-10-23T00:44:59.614Z,13.20
2022-10-23T00:47:27.473Z,13.08
2022-10-23T00:49:55.274Z,13.19
2022-10-23T00:52:23.104Z,13.01
2022-10-23T00:54:52.312Z,13.34
2022-10-23T00:57:20.182Z,13.34
2022-10-23T00:59:48.216Z,13.39
2022-10-23T01:02:16.297Z,13.38
2022-10-23T01:04:44.429Z,13.37
2022-10-23T01:07:19.046Z,13.35
2022-10-23T01:09:56.773Z,13.34
2022-10-23T01:12:29.919Z,13.54
2022-10-23T01:15:07.286Z,13.46
2022-10-23T01:17:44.414Z,13.60
2022-10-23T01:20:26.371Z,13.35
2022-10-23T01:23:15.647Z,13.55
2022-10-23T01:26:15.141Z,13.26
2022-10-23T01:28:50.886Z,13.43
2022-10-23T01:31:26.728Z,13.35
2022-10-23T01:33:57.467Z,13.24
2022-10-23T01:36:31.163Z,12.92
2022-10-23T01:39:06.384Z,12.90
2022-10-23T01:41:40.498Z,12.89
2022-10-23T01:44:15.565Z,12.98
2022-10-23T01:46:46.244Z,13.14
2022-10-23T01:49:15.882Z,13.12
2022-10-23T01:51:50.214Z,12.96
2022-10-23T01:54:20.680Z,13.02
2022-10-23T01:56:52.207Z,12.99
2022-10-23T01:59:33.004Z,13.10
2022-10-23T02:02:02.318Z,13.04
2022-10-23T02:04:34.831Z,13.23
2022-10-23T02:07:02.716Z,12.86
2022-10-23T02:09:30.537Z,12.73
2022-10-23T02:12:06.574Z,12.56
2022-10-23T02:14:43.387Z,12.65
2022-10-23T02:17:18.512Z,12.66
2022-10-23T02:19:51.546Z,12.64
2022-10-23T02:22:25.670Z,12.56
2022-10-23T02:24:55.690Z,12.82
2022-10-23T02:27:30.587Z,12.63
2022-10-23T02:30:05.517Z,12.51
2022-10-23T02:32:36.207Z,12.56
2022-10-23T02:35:04.473Z,12.52
2022-10-23T02:37:32.299Z,12.67
2022-10-23T02:40:03.915Z,12.45
2022-10-23T02:42:44.448Z,12.38
2022-10-23T02:45:23.295Z,12.29
2022-10-23T02:47:57.942Z,12.46
2022-10-23T02:50:34.680Z,12.22
2022-10-23T02:53:10.856Z,12.19
2022-10-23T02:55:49.829Z,12.07
2022-10-23T02:58:23.894Z,12.22
2022-10-23T03:00:59.101Z,12.00
2022-10-23T03:03:32.625Z,11.82
2022-10-23T03:06:00.841Z,11.87
2022-10-23T03:08:29.140Z,11.81
2022-10-23T03:10:57.394Z,11.83
2022-10-23T03:13:28.791Z,11.77
2022-10-23T03:15:57.915Z,11.77
2022-10-23T03:18:27.933Z,11.65
2022-10-23T03:20:59.825Z,11.83
2022-10-23T03:23:27.683Z,11.71
2022-10-23T03:25:56.412Z,11.67
2022-10-23T03:28:36.172Z,11.93
2022-10-23T03:31:05.607Z,11.74
2022-10-23T03:33:33.875Z,11.69
2022-10-23T03:36:09.774Z,11.59
2022-10-23T03:38:37.594Z,11.59
2022-10-23T03:41:06.718Z,11.68
2022-10-23T03:43:34.558Z,11.67
2022-10-23T03:46:02.949Z,11.68
2022-10-23T03:48:32.626Z,11.66
2022-10-23T03:51:00.535Z,11.51
2022-10-23T03:53:28.409Z,11.46
2022-10-23T03:55:56.215Z,11.30
2022-10-23T03:58:24.208Z,11.19
2022-10-23T04:00:52.107Z,11.16
2022-10-23T04:03:19.968Z,11.22
2022-10-23T04:05:52.082Z,11.23
2022-10-23T04:08:22.511Z,11.26
2022-10-23T04:10:54.711Z,11.32
2022-10-23T04:13:31.605Z,11.36
2022-10-23T04:15:59.545Z,11.37
2022-10-23T04:18:27.420Z,11.25
2022-10-23T04:20:56.600Z,11.17
2022-10-23T04:23:24.471Z,10.94
2022-10-23T04:25:52.333Z,10.80
2022-10-23T04:28:24.597Z,10.71
2022-10-23T04:30:52.804Z,10.75
2022-10-23T04:33:22.147Z,10.75
2022-10-23T04:35:52.029Z,10.83
2022-10-23T04:38:21.417Z,10.63
2022-10-23T04:40:50.816Z,10.53
2022-10-23T04:43:22.361Z,10.44
2022-10-23T04:45:51.135Z,10.40
2022-10-23T04:48:43.679Z,10.35
2022-10-23T04:51:24.894Z,10.34
2022-10-23T04:54:16.668Z,10.30
2022-10-23T04:57:22.922Z,10.25
2022-10-23T05:00:10.286Z,10.22
2022-10-23T05:02:45.769Z,10.24
2022-10-23T05:05:16.087Z,10.32
2022-10-23T05:08:02.673Z,10.36
2022-10-23T05:10:45.203Z,10.23
2022-10-23T05:13:15.342Z,10.16
2022-10-23T05:18:22.754Z,10.08
2022-10-23T05:20:52.788Z,10.09
2022-10-23T05:23:25.878Z,10.17
2022-10-23T05:25:58.737Z,10.16
2022-10-23T05:28:26.686Z,10.12
2022-10-23T05:30:54.592Z,10.04
2022-10-23T05:33:26.904Z,10.31
2022-10-23T05:35:55.037Z,10.29
2022-10-23T05:38:24.574Z,10.15
2022-10-23T05:40:53.168Z,10.27
2022-10-23T05:43:23.404Z,10.19
2022-10-23T05:45:57.162Z,10.27
2022-10-23T05:48:46.253Z,10.42
2022-10-23T05:51:37.586Z,10.41
2022-10-23T05:54:21.176Z,10.41
2022-10-23T05:56:57.191Z,10.24
2022-10-23T05:59:45.593Z,10.15
2022-10-23T06:02:22.719Z,10.14
2022-10-23T06:04:56.475Z,10.24
2022-10-23T06:07:51.223Z,10.37
2022-10-23T06:10:20.106Z,10.47
2022-10-23T06:12:52.397Z,10.32
2022-10-23T06:15:21.743Z,10.34
2022-10-23T06:18:02.141Z,10.55
2022-10-23T06:20:31.852Z,10.38
2022-10-23T06:23:07.818Z,10.28
2022-10-23T06:25:55.794Z,10.28
2022-10-23T06:28:31.785Z,10.18
2022-10-23T06:31:05.390Z,10.19
2022-10-23T06:33:33.578Z,10.33
2022-10-23T06:36:05.449Z,10.23
2022-10-23T06:38:36.836Z,10.09
2022-10-23T06:41:06.075Z,10.12
2022-10-23T06:43:39.151Z,10.13
2022-10-23T06:46:30.162Z,10.62
2022-10-23T06:49:16.646Z,10.30
2022-10-23T06:51:49.481Z,10.29
2022-10-23T06:54:21.860Z,10.37
2022-10-23T06:56:49.706Z,10.43
2022-10-23T06:59:24.548Z,10.55
2022-10-23T07:04:28.470Z,10.60
2022-10-23T07:06:57.530Z,10.67
2022-10-23T07:09:31.294Z,10.75
2022-10-23T07:12:29.280Z,10.80
2022-10-23T07:15:17.398Z,11.03
2022-10-23T07:17:46.701Z,10.97
2022-10-23T07:20:14.781Z,10.96
2022-10-23T07:22:43.758Z,11.02
2022-10-23T07:25:15.061Z,11.07
2022-10-23T07:27:43.276Z,11.15
2022-10-23T07:30:12.769Z,11.26
2022-10-23T07:32:52.966Z,11.33
2022-10-23T07:35:50.019Z,11.55
2022-10-23T07:38:27.365Z,11.64
2022-10-23T07:40:59.242Z,11.63
2022-10-23T07:43:34.986Z,11.79
2022-10-23T07:46:03.403Z,11.87
2022-10-23T07:48:36.867Z,11.88
2022-10-23T07:51:10.470Z,11.86
2022-10-23T07:53:44.170Z,11.97
2022-10-23T07:56:41.034Z,12.03
2022-10-23T07:59:18.177Z,12.18
2022-10-23T08:01:56.421Z,12.22
2022-10-23T08:04:31.309Z,12.37
2022-10-23T08:07:09.192Z,12.26
2022-10-23T08:09:42.373Z,12.38
2022-10-23T08:12:10.765Z,12.40
2022-10-23T08:14:39.051Z,12.54
2022-10-23T08:17:09.639Z,12.74
2022-10-23T08:19:57.333Z,12.67
2022-10-23T08:22:28.664Z,12.77
2022-10-23T08:24:56.825Z,12.91
2022-10-23T08:27:25.500Z,13.08
2022-10-23T08:29:53.863Z,13.15
2022-10-23T08:32:22.965Z,13.12
2022-10-23T08:35:02.254Z,13.34
2022-10-23T08:37:49.580Z,13.31
2022-10-23T08:40:23.850Z,13.48
2022-10-23T08:43:18.589Z,13.66
2022-10-23T08:46:06.125Z,13.63
2022-10-23T08:49:13.148Z,13.79
2022-10-23T08:51:55.641Z,13.83
2022-10-23T08:54:28.795Z,13.95
2022-10-23T08:57:04.529Z,14.10
2022-10-23T08:59:40.033Z,14.16
2022-10-23T09:02:17.567Z,14.26
2022-10-23T09:04:48.453Z,14.28
2022-10-23T09:07:29.587Z,14.48
2022-10-23T09:10:11.584Z,14.55
2022-10-23T09:12:39.897Z,14.63
2022-10-23T09:15:21.249Z,14.85
2022-10-23T09:17:55.012Z,14.82
2022-10-23T09:20:25.169Z,14.81
2022-10-23T09:22:58.163Z,15.04
2022-10-23T09:25:27.937Z,15.19
2022-10-23T09:28:00.074Z,15.21
2022-10-23T09:30:34.554Z,15.25
2022-10-23T09:33:14.983Z,15.44
2022-10-23T09:35:54.315Z,15.43
2022-10-23T09:38:28.605Z,15.51
2022-10-23T09:40:56.916Z,15.39
2022-10-23T09:43:27.469Z,15.57
2022-10-23T09:46:02.758Z,15.65
2022-10-23T09:48:32.897Z,15.72
2022-10-23T09:51:03.219Z,15.74
2022-10-23T09:53:35.959Z,15.95
2022-10-23T09:56:07.899Z,15.96
2022-10-23T09:58:38.058Z,16.07
2022-10-23T10:01:06.427Z,16.15
2022-10-23T10:03:50.343Z,16.26
2022-10-23T10:06:26.960Z,16.38
2022-10-23T10:08:58.341Z,16.30
2022-10-23T10:11:33.338Z,16.46
2022-10-23T10:14:19.832Z,16.53
2022-10-23T10:16:52.722Z,16.61
2022-10-23T10:19:32.125Z,16.53
2022-10-23T10:22:12.775Z,16.70
2022-10-23T10:24:50.420Z,16.85
2022-10-23T10:27:35.850Z,16.94
2022-10-23T10:30:11.703Z,17.01
2022-10-23T10:32:46.436Z,17.03
2022-10-23T10:35:26.446Z,17.37
2022-10-23T10:38:13.608Z,17.32
2022-10-23T10:40:47.882Z,17.42
2022-10-23T10:43:27.921Z,17.37
2022-10-23T10:46:02.026Z,17.18
2022-10-23T10:48:41.757Z,17.57
2022-10-23T10:51:45.332Z,17.65
2022-10-23T10:54:27.196Z,17.75
2022-10-23T10:56:59.418Z,18.03
2022-10-23T10:59:33.284Z,18.13
2022-10-23T11:02:06.713Z,18.28
2022-10-23T11:04:42.015Z,18.31
2022-10-23T11:07:15.213Z,18.73
2022-10-23T11:09:44.224Z,19.02
2022-10-23T11:12:19.437Z,18.80
2022-10-23T11:14:47.621Z,18.84
2022-10-23T11:17:19.927Z,18.79
2022-10-23T11:19:57.606Z,19.12
2022-10-23T11:22:35.955Z,19.70
2022-10-23T11:25:41.377Z,20.06
2022-10-23T11:28:24.756Z,19.50
2022-10-23T11:31:12.941Z,19.54
2022-10-23T11:34:07.409Z,19.32
2022-10-23T11:36:47.902Z,19.42
2022-10-23T11:39:25.697Z,19.38
2022-10-23T11:41:57.974Z,19.43
2022-10-23T11:44:39.071Z,19.88
2022-10-23T11:47:26.451Z,19.81
2022-10-23T11:50:14.629Z,19.80
2022-10-23T11:53:15.468Z,19.85
2022-10-23T11:56:02.042Z,20.26
2022-10-23T11:58:43.315Z,20.10
2022-10-23T12:01:28.881Z,20.44
2022-10-23T12:04:00.236Z,20.53
2022-10-23T12:06:30.776Z,21.01
2022-10-23T12:09:02.982Z,22.19
2022-10-23T12:11:43.557Z,23.69
2022-10-23T12:14:29.296Z,24.31
2022-10-23T12:16:59.080Z,24.97
2022-10-23T12:19:29.830Z,24.17
2022-10-23T12:22:01.509Z,23.52
2022-10-23T12:24:43.937Z,23.52
2022-10-23T12:27:20.973Z,23.05
2022-10-23T12:30:22.291Z,22.56
2022-10-23T12:33:12.381Z,22.73
2022-10-23T12:36:05.571Z,22.76
2022-10-23T12:38:35.658Z,22.51
2022-10-23T12:41:13.769Z,21.27
2022-10-23T12:43:43.783Z,20.97
2022-10-23T12:46:30.177Z,20.51
2022-10-23T12:49:02.293Z,20.11
2022-10-23T12:51:31.772Z,20.09
2022-10-23T12:54:00.419Z,19.80
2022-10-23T12:56:30.621Z,19.80
2022-10-23T12:59:01.562Z,19.51
2022-10-23T13:01:31.663Z,19.63
2022-10-23T13:04:09.254Z,19.45
2022-10-23T13:06:38.712Z,19.42
2022-10-23T13:09:08.664Z,19.34
2022-10-23T13:11:45.606Z,19.52
2022-10-23T13:14:30.889Z,19.39
2022-10-23T13:17:03.360Z,19.29
2022-10-23T13:19:32.985Z,18.97
2022-10-23T13:22:02.019Z,18.96
2022-10-23T13:24:31.949Z,18.95
2022-10-23T13:27:00.023Z,18.95
2022-10-23T13:29:32.013Z,18.96
2022-10-23T13:32:11.191Z,18.84
2022-10-23T13:34:40.475Z,18.76
2022-10-23T13:37:24.567Z,18.87
2022-10-23T13:40:00.904Z,18.95
2022-10-23T13:42:28.865Z,18.97
2022-10-23T13:44:56.926Z,19.01
2022-10-23T13:47:24.927Z,19.08
2022-10-23T13:49:54.285Z,19.01
2022-10-23T13:52:24.363Z,18.92
2022-10-23T13:54:52.231Z,18.77
2022-10-23T13:57:20.088Z,18.76
2022-10-23T13:59:47.867Z,18.69
2022-10-23T14:02:21.246Z,18.71
2022-10-23T14:04:49.372Z,18.70
2022-10-23T14:07:19.142Z,18.70
2022-10-23T14:09:47.441Z,18.70
2022-10-23T14:12:16.290Z,18.49
2022-10-23T14:14:44.114Z,18.42
2022-10-23T14:17:14.818Z,18.40
2022-10-23T14:19:42.888Z,18.35
2022-10-23T14:22:14.870Z,18.26
2022-10-23T14:24:44.188Z,18.23
2022-10-23T14:27:12.370Z,18.07
2022-10-23T14:29:41.888Z,18.09
2022-10-23T14:32:09.715Z,18.02
2022-10-23T14:34:40.899Z,18.00
2022-10-23T14:37:09.453Z,17.98
2022-10-23T14:39:37.393Z,17.99
2022-10-23T14:42:06.711Z,17.91
2022-10-23T14:44:34.548Z,17.89
2022-10-23T14:47:03.071Z,17.94
2022-10-23T14:49:30.971Z,17.91
2022-10-23T14:51:59.226Z,17.85
2022-10-23T14:54:28.216Z,17.76
2022-10-23T14:56:56.053Z,17.69
2022-10-23T14:59:25.128Z,17.70
2022-10-23T15:04:21.867Z,17.45
2022-10-23T15:06:49.840Z,17.44
2022-10-23T15:09:19.444Z,17.44
2022-10-23T15:11:47.446Z,17.34
2022-10-23T15:14:15.475Z,17.32
2022-10-23T15:16:44.682Z,17.26
2022-10-23T15:19:18.100Z,17.15
2022-10-23T15:21:46.901Z,17.14
2022-10-23T15:24:15.124Z,17.02
2022-10-23T15:26:43.312Z,17.06
2022-10-23T15:29:14.865Z,16.97
2022-10-23T15:31:47.503Z,16.84
2022-10-23T15:34:17.410Z,16.71
2022-10-23T15:36:47.014Z,16.73
2022-10-23T15:39:17.604Z,16.70
2022-10-23T15:41:45.971Z,16.65
2022-10-23T15:44:16.270Z,16.57
2022-10-23T15:46:45.570Z,16.51
2022-10-23T15:49:14.065Z,16.45
2022-10-23T15:51:43.213Z,16.28
2022-10-23T15:54:16.425Z,16.21
2022-10-23T15:56:44.954Z,16.22
2022-10-23T15:59:12.952Z,16.19
2022-10-23T16:01:41.133Z,16.17
2022-10-23T16:04:11.100Z,15.98
2022-10-23T16:06:39.262Z,15.97
2022-10-23T16:09:07.274Z,15.96
2022-10-23T16:11:38.600Z,16.05
2022-10-23T16:14:07.079Z,15.91
2022-10-23T16:16:35.544Z,15.92
2022-10-23T16:19:04.635Z,15.90
2022-10-23T16:21:36.036Z,15.89
2022-10-23T16:24:06.909Z,15.84
2022-10-23T16:26:36.604Z,15.78
2022-10-23T16:29:07.073Z,15.77
2022-10-23T16:31:36.000Z,15.78
2022-10-23T16:34:05.924Z,15.67
2022-10-23T16:36:38.867Z,15.81
2022-10-23T16:39:22.600Z,15.67
2022-10-23T16:42:09.129Z,15.73
2022-10-23T16:45:03.484Z,15.70
2022-10-23T16:47:32.242Z,15.70
2022-10-23T16:50:00.553Z,15.69
2022-10-23T16:52:29.855Z,15.73
2022-10-23T16:54:57.869Z,15.72
2022-10-23T16:57:27.275Z,15.66
2022-10-23T16:59:55.200Z,15.66
2022-10-23T17:02:23.104Z,15.56
2022-10-23T17:04:50.969Z,15.53
2022-10-23T17:07:19.515Z,15.51
2022-10-23T17:09:48.730Z,15.61
2022-10-23T17:12:17.135Z,15.52
2022-10-23T17:14:44.938Z,15.53
2022-10-23T17:17:13.563Z,15.45
2022-10-23T17:19:45.891Z,15.48
2022-10-23T17:22:14.482Z,15.53
2022-10-23T17:24:47.384Z,15.65
2022-10-23T17:27:19.843Z,15.56
2022-10-23T17:29:47.941Z,15.52
2022-10-23T17:32:15.924Z,15.55
2022-10-23T17:34:43.730Z,15.57
2022-10-23T17:37:13.281Z,15.57
2022-10-23T17:39:41.907Z,15.59
2022-10-23T17:42:10.298Z,15.66
2022-10-23T17:44:39.730Z,15.69
2022-10-23T17:47:07.677Z,15.61
2022-10-23T17:49:35.634Z,15.72
2022-10-23T17:52:03.921Z,15.73
2022-10-23T17:54:32.079Z,15.77
2022-10-23T17:57:00.093Z,15.77
2022-10-23T17:59:28.057Z,15.82
2022-10-23T18:01:59.815Z,15.88
2022-10-23T18:04:29.138Z,15.92
2022-10-23T18:06:57.196Z,15.90
2022-10-23T18:09:25.086Z,15.78
2022-10-23T18:11:53.320Z,15.81
2022-10-23T18:14:23.112Z,15.85
2022-10-23T18:16:52.628Z,15.88
2022-10-23T18:19:21.809Z,15.60
2022-10-23T18:21:49.826Z,15.59
2022-10-23T18:24:18.136Z,15.54
2022-10-23T18:26:47.970Z,15.44
2022-10-23T18:29:17.396Z,15.45
2022-10-23T18:31:48.040Z,15.50
2022-10-23T18:34:18.629Z,15.37
2022-10-23T18:36:49.065Z,15.30
2022-10-23T18:39:20.065Z,15.35
2022-10-23T18:41:47.948Z,15.33
2022-10-23T18:44:17.910Z,15.27
2022-10-23T18:46:46.187Z,15.19
2022-10-23T18:49:14.946Z,15.16
2022-10-23T18:51:43.038Z,15.28
2022-10-23T18:54:15.169Z,15.17
2022-10-23T18:56:44.262Z,15.03
2022-10-23T18:59:15.763Z,14.96
2022-10-23T19:01:44.870Z,14.98
2022-10-23T19:04:15.639Z,15.03
2022-10-23T19:06:43.768Z,15.05
2022-10-23T19:09:14.761Z,15.01
2022-10-23T19:11:43.437Z,14.96
2022-10-23T19:14:11.387Z,14.97
2022-10-23T19:16:43.386Z,14.87
2022-10-23T19:19:18.752Z,14.84
2022-10-23T19:21:47.966Z,14.82
2022-10-23T19:24:20.974Z,14.80
2022-10-23T19:26:49.365Z,14.74
2022-10-23T19:29:22.725Z,14.74
2022-10-23T19:31:51.680Z,14.85
2022-10-23T19:34:25.092Z,14.82
2022-10-23T19:36:54.750Z,14.75
2022-10-23T19:39:25.800Z,14.65
2022-10-23T19:41:54.124Z,14.67
2022-10-23T19:44:22.409Z,14.66
2022-10-23T19:46:50.429Z,14.61
2022-10-23T19:49:18.965Z,14.60
2022-10-23T19:51:51.304Z,15.07
2022-10-23T19:54:20.111Z,15.51
2022-10-23T19:56:49.838Z,15.00
2022-10-23T19:59:18.676Z,14.83
2022-10-23T20:01:48.062Z,14.76
2022-10-23T20:04:18.985Z,14.63
2022-10-23T20:06:48.294Z,14.53
2022-10-23T20:09:16.505Z,14.51
2022-10-23T20:11:45.542Z,14.43
2022-10-23T20:14:14.911Z,14.36
2022-10-23T20:16:45.111Z,14.44
2022-10-23T20:19:15.171Z,14.41
2022-10-23T20:21:45.394Z,14.40
2022-10-23T20:24:15.718Z,14.39
2022-10-23T20:26:45.755Z,14.36
2022-10-23T20:29:16.062Z,14.37
2022-10-23T20:31:44.415Z,14.36
2022-10-23T20:34:12.696Z,14.33
2022-10-23T20:36:45.584Z,14.38
2022-10-23T20:39:17.091Z,14.29
2022-10-23T20:41:45.989Z,14.25
2022-10-23T20:46:50.690Z,14.22
2022-10-23T20:49:20.999Z,14.11
2022-10-23T20:51:54.977Z,14.16
2022-10-23T20:54:23.958Z,14.07
2022-10-23T20:56:51.974Z,14.12
2022-10-23T20:59:21.740Z,14.12
2022-10-23T21:01:52.884Z,13.93
2022-10-23T21:04:23.449Z,13.88
2022-10-23T21:07:08.814Z,13.83
2022-10-23T21:09:39.022Z,13.76
2022-10-23T21:12:07.371Z,13.82
2022-10-23T21:14:37.195Z,13.71
2022-10-23T21:17:05.492Z,13.65
2022-10-23T21:19:33.604Z,13.63
2022-10-23T21:22:01.435Z,13.68
2022-10-23T21:24:29.329Z,13.63
2022-10-23T21:26:57.203Z,13.59
2022-10-23T21:29:25.227Z,13.58
2022-10-23T21:31:55.946Z,13.50
2022-10-23T21:34:25.296Z,13.44
2022-10-23T21:37:11.848Z,13.39
2022-10-23T21:39:44.457Z,13.39
2022-10-23T21:42:12.622Z,13.39
2022-10-23T21:44:40.638Z,13.52
2022-10-23T21:47:09.848Z,13.63
2022-10-23T21:49:37.849Z,13.74
2022-10-23T21:52:06.077Z,13.80
2022-10-23T21:54:33.976Z,14.10
2022-10-23T21:57:03.140Z,13.95
2022-10-23T21:59:33.191Z,13.99
2022-10-23T22:02:03.362Z,13.92
2022-10-23T22:04:32.847Z,13.93
2022-10-23T22:07:01.852Z,13.80
2022-10-23T22:09:29.986Z,13.84
2022-10-23T22:11:59.773Z,13.88
2022-10-23T22:14:28.290Z,13.97
2022-10-23T22:16:56.194Z,13.97
2022-10-23T22:19:24.255Z,14.06
2022-10-23T22:21:53.443Z,14.09
2022-10-23T22:24:21.344Z,14.11
2022-10-23T22:26:51.506Z,14.25
2022-10-23T22:29:21.411Z,14.19
2022-10-23T22:31:50.130Z,14.18
2022-10-23T22:34:28.749Z,14.14
2022-10-23T22:37:12.692Z,14.25
2022-10-23T22:39:41.066Z,14.29
2022-10-23T22:42:08.911Z,14.16
2022-10-23T22:44:36.669Z,14.26
2022-10-23T22:47:04.602Z,14.12
2022-10-23T22:49:32.444Z,14.07
2022-10-23T22:52:00.237Z,14.07
2022-10-23T22:54:30.569Z,13.86
2022-10-23T22:56:58.399Z,13.89
2022-10-23T22:59:26.191Z,13.98
2022-10-23T23:01:54.085Z,13.94
2022-10-23T23:04:38.675Z,13.93
2022-10-23T23:07:07.548Z,13.82
2022-10-23T23:09:38.717Z,13.81
2022-10-23T23:12:07.213Z,13.69
2022-10-23T23:14:35.331Z,13.70
2022-10-23T23:17:06.197Z,13.68
2022-10-23T23:19:33.977Z,13.80
2022-10-23T23:22:02.158Z,13.72
2022-10-23T23:24:30.218Z,13.55
2022-10-23T23:26:59.325Z,13.50
2022-10-23T23:29:28.302Z,13.59
2022-10-23T23:31:56.087Z,13.56
2022-10-23T23:34:23.891Z,13.86
2022-10-23T23:36:51.637Z,13.87
2022-10-23T23:39:19.405Z,13.65
2022-10-23T23:41:47.211Z,13.56
2022-10-23T23:44:16.477Z,13.43
2022-10-23T23:46:44.217Z,13.55
2022-10-23T23:49:12.176Z,13.54
2022-10-23T23:51:40.102Z,13.67
2022-10-23T23:54:07.964Z,13.60
2022-10-23T23:56:35.963Z,13.57
2022-10-23T23:59:03.846Z,13.45
